Terminal Aerodrome Forecast
Issued by NWS

Home | Current Version | Previous Version | Text Only | Print | Product List | Glossary On
Versions: 1 2 3 4 5 6 7 8 9 10 11 12 13 14 15 16
000
FTUS44 KMAF 310500
TAFINK
TAF
KINK 310520Z 3106/0106 10010KT P6SM -RA OVC025
     FM310800 12011KT 5SM -RA BR FEW008 OVC010
     FM311800 16007KT P6SM -RA OVC025=

USA.gov is the U.S. government's official web portal to all federal, state and local government web resources and services.